Barb, Ohio
Current Conditions -  °F | °C
As of 8:54 AM on Wednesday 28 Jan 2015 (Local Time) from KAKR Reporting Station
Haze Haze  
Wind Chill:   Ceiling: Unl
Heat Index: 11°   Visibility: 5mi
Dew Point:   Wind: 6mph
Humidity: 73%   Direction: 240°WSW
Pressure: 30.33"   Gusts: NA
Location:  41.0203°N, 81.628°W
Report Text: KAKR 281354Z AUTO 24005KT 5SM HZ CLR M12/M16 A3033 RMK AO2 SLP290 T11171156 $
Loading
Personal Weather Stations






























Interactive Weather Map New forecast layout! Learn more

10-Day Weather Forecast

Advertisements
Track Severe Weather on mobile